sensor_id;sensor_type;location;lat;lon;timestamp;pressure;altitude;pressure_sealevel;temperature;humidity
23616;BME280;11985;49.404;7.734;2024-01-06T00:04:59;96115.34;;;1.56;100.00
23616;BME280;11985;49.404;7.734;2024-01-06T00:10:02;96119.28;;;1.52;100.00
23616;BME280;11985;49.404;7.734;2024-01-06T00:15:05;96118.84;;;1.64;100.00
23616;BME280;11985;49.404;7.734;2024-01-06T00:20:08;96121.72;;;1.69;100.00
23616;BME280;11985;49.404;7.734;2024-01-06T00:25:11;96119.03;;;1.77;100.00
23616;BME280;11985;49.404;7.734;2024-01-06T00:30:12;96116.69;;;1.82;100.00
23616;BME280;11985;49.404;7.734;2024-01-06T00:35:14;96117.97;;;1.86;100.00
23616;BME280;11985;49.404;7.734;2024-01-06T00:40:17;96120.44;;;1.94;100.00
23616;BME280;11985;49.404;7.734;2024-01-06T00:45:20;96118.59;;;2.03;100.00
23616;BME280;11985;49.404;7.734;2024-01-06T00:50:23;96119.31;;;2.11;100.00
23616;BME280;11985;49.404;7.734;2024-01-06T00:55:26;96118.31;;;2.13;100.00
23616;BME280;11985;49.404;7.734;2024-01-06T01:00:28;96133.91;;;2.13;100.00
23616;BME280;11985;49.404;7.734;2024-01-06T01:05:29;96134.88;;;2.11;100.00
23616;BME280;11985;49.404;7.734;2024-01-06T01:10:32;96142.69;;;2.11;100.00
23616;BME280;11985;49.404;7.734;2024-01-06T01:15:34;96144.28;;;2.13;100.00
23616;BME280;11985;49.404;7.734;2024-01-06T01:20:35;96145.91;;;2.14;100.00
23616;BME280;11985;49.404;7.734;2024-01-06T01:25:38;96159.06;;;2.12;100.00
23616;BME280;11985;49.404;7.734;2024-01-06T01:30:39;96157.88;;;2.15;100.00
23616;BME280;11985;49.404;7.734;2024-01-06T01:35:41;96156.91;;;2.16;100.00
23616;BME280;11985;49.404;7.734;2024-01-06T01:40:44;96152.69;;;2.15;100.00
23616;BME280;11985;49.404;7.734;2024-01-06T01:45:48;96170.69;;;2.16;100.00
23616;BME280;11985;49.404;7.734;2024-01-06T01:50:53;96183.16;;;2.21;100.00
23616;BME280;11985;49.404;7.734;2024-01-06T01:55:56;96176.97;;;2.22;100.00
23616;BME280;11985;49.404;7.734;2024-01-06T02:00:57;96172.75;;;2.21;100.00
23616;BME280;11985;49.404;7.734;2024-01-06T02:05:59;96177.94;;;2.21;100.00
23616;BME280;11985;49.404;7.734;2024-01-06T02:11:03;96176.34;;;2.20;100.00
23616;BME280;11985;49.404;7.734;2024-01-06T02:16:08;96159.94;;;2.19;100.00
23616;BME280;11985;49.404;7.734;2024-01-06T02:21:09;96169.34;;;2.20;100.00
23616;BME280;11985;49.404;7.734;2024-01-06T02:26:13;96180.38;;;2.22;100.00
23616;BME280;11985;49.404;7.734;2024-01-06T02:31:15;96179.66;;;2.28;100.00
23616;BME280;11985;49.404;7.734;2024-01-06T02:36:16;96183.41;;;2.26;100.00
23616;BME280;11985;49.404;7.734;2024-01-06T02:41:24;96185.41;;;2.24;100.00
23616;BME280;11985;49.404;7.734;2024-01-06T02:46:25;96180.19;;;2.24;100.00
23616;BME280;11985;49.404;7.734;2024-01-06T02:51:27;96186.38;;;2.23;100.00
23616;BME280;11985;49.404;7.734;2024-01-06T02:56:30;96180.28;;;2.16;100.00
23616;BME280;11985;49.404;7.734;2024-01-06T03:01:31;96189.06;;;2.15;100.00
23616;BME280;11985;49.404;7.734;2024-01-06T03:06:33;96196.31;;;2.19;100.00
23616;BME280;11985;49.404;7.734;2024-01-06T03:11:36;96204.31;;;2.18;100.00
23616;BME280;11985;49.404;7.734;2024-01-06T03:16:38;96208.69;;;2.17;100.00
23616;BME280;11985;49.404;7.734;2024-01-06T03:21:39;96220.31;;;2.21;100.00
23616;BME280;11985;49.404;7.734;2024-01-06T03:26:42;96215.94;;;2.22;100.00
23616;BME280;11985;49.404;7.734;2024-01-06T03:31:45;96213.09;;;2.17;100.00
23616;BME280;11985;49.404;7.734;2024-01-06T03:36:47;96213.88;;;2.17;100.00
23616;BME280;11985;49.404;7.734;2024-01-06T03:41:50;96211.44;;;2.16;100.00
23616;BME280;11985;49.404;7.734;2024-01-06T03:46:51;96213.25;;;2.15;100.00
23616;BME280;11985;49.404;7.734;2024-01-06T03:51:53;96213.25;;;2.15;100.00
23616;BME280;11985;49.404;7.734;2024-01-06T03:56:55;96222.50;;;2.18;100.00
23616;BME280;11985;49.404;7.734;2024-01-06T04:01:57;96230.09;;;2.19;100.00
23616;BME280;11985;49.404;7.734;2024-01-06T04:06:59;96232.50;;;2.21;100.00
23616;BME280;11985;49.404;7.734;2024-01-06T04:12:03;96229.38;;;2.25;100.00
23616;BME280;11985;49.404;7.734;2024-01-06T04:17:05;96227.25;;;2.29;100.00
23616;BME280;11985;49.404;7.734;2024-01-06T04:22:06;96223.28;;;2.33;100.00
23616;BME280;11985;49.404;7.734;2024-01-06T04:27:09;96228.84;;;2.30;100.00
23616;BME280;11985;49.404;7.734;2024-01-06T04:32:11;96237.25;;;2.32;100.00
23616;BME280;11985;49.404;7.734;2024-01-06T04:37:12;96236.09;;;2.34;100.00
23616;BME280;11985;49.404;7.734;2024-01-06T04:42:16;96225.06;;;2.32;100.00
23616;BME280;11985;49.404;7.734;2024-01-06T04:47:19;96230.91;;;2.34;100.00
23616;BME280;11985;49.404;7.734;2024-01-06T04:52:21;96227.06;;;2.45;100.00
23616;BME280;11985;49.404;7.734;2024-01-06T04:57:24;96231.69;;;2.64;100.00
23616;BME280;11985;49.404;7.734;2024-01-06T05:02:26;96226.41;;;2.73;100.00
23616;BME280;11985;49.404;7.734;2024-01-06T05:07:27;96228.28;;;2.79;100.00
23616;BME280;11985;49.404;7.734;2024-01-06T05:12:30;96237.31;;;2.83;100.00
23616;BME280;11985;49.404;7.734;2024-01-06T05:17:32;96237.94;;;2.85;100.00
23616;BME280;11985;49.404;7.734;2024-01-06T05:22:34;96237.22;;;2.91;100.00
23616;BME280;11985;49.404;7.734;2024-01-06T05:27:36;96237.94;;;2.85;100.00
23616;BME280;11985;49.404;7.734;2024-01-06T05:32:38;96244.03;;;2.92;100.00
23616;BME280;11985;49.404;7.734;2024-01-06T05:37:40;96246.81;;;2.90;100.00
23616;BME280;11985;49.404;7.734;2024-01-06T05:42:43;96245.28;;;2.96;100.00
23616;BME280;11985;49.404;7.734;2024-01-06T05:47:45;96249.47;;;2.97;100.00
23616;BME280;11985;49.404;7.734;2024-01-06T05:52:46;96255.69;;;2.96;100.00
23616;BME280;11985;49.404;7.734;2024-01-06T05:57:50;96265.00;;;2.90;100.00
23616;BME280;11985;49.404;7.734;2024-01-06T06:02:52;96264.13;;;2.83;100.00
23616;BME280;11985;49.404;7.734;2024-01-06T06:07:53;96275.06;;;2.79;100.00
23616;BME280;11985;49.404;7.734;2024-01-06T06:12:56;96273.38;;;2.71;100.00
23616;BME280;11985;49.404;7.734;2024-01-06T06:17:58;96279.03;;;2.75;100.00
23616;BME280;11985;49.404;7.734;2024-01-06T06:23:00;96278.81;;;2.91;100.00
23616;BME280;11985;49.404;7.734;2024-01-06T06:28:04;96286.50;;;2.99;100.00
23616;BME280;11985;49.404;7.734;2024-01-06T06:33:07;96298.63;;;3.07;100.00
23616;BME280;11985;49.404;7.734;2024-01-06T06:38:11;96305.63;;;2.91;100.00
23616;BME280;11985;49.404;7.734;2024-01-06T06:43:14;96307.44;;;2.91;100.00
23616;BME280;11985;49.404;7.734;2024-01-06T06:48:16;96314.34;;;2.84;100.00
23616;BME280;11985;49.404;7.734;2024-01-06T06:53:18;96328.31;;;2.83;100.00
23616;BME280;11985;49.404;7.734;2024-01-06T06:58:21;96335.50;;;2.81;100.00
23616;BME280;11985;49.404;7.734;2024-01-06T07:03:23;96344.81;;;2.75;100.00
23616;BME280;11985;49.404;7.734;2024-01-06T07:08:24;96340.69;;;2.81;100.00
23616;BME280;11985;49.404;7.734;2024-01-06T07:13:27;96343.75;;;2.84;100.00
23616;BME280;11985;49.404;7.734;2024-01-06T07:18:29;96350.84;;;2.90;100.00
23616;BME280;11985;49.404;7.734;2024-01-06T07:23:30;96358.28;;;2.79;100.00
23616;BME280;11985;49.404;7.734;2024-01-06T07:28:33;96365.34;;;2.70;100.00
23616;BME280;11985;49.404;7.734;2024-01-06T07:33:35;96366.88;;;2.64;100.00
23616;BME280;11985;49.404;7.734;2024-01-06T07:38:36;96376.38;;;2.57;100.00
23616;BME280;11985;49.404;7.734;2024-01-06T07:43:39;96387.75;;;2.56;100.00
23616;BME280;11985;49.404;7.734;2024-01-06T07:48:41;96397.09;;;2.65;100.00
23616;BME280;11985;49.404;7.734;2024-01-06T07:53:42;96403.38;;;2.86;100.00
23616;BME280;11985;49.404;7.734;2024-01-06T07:58:45;96409.75;;;2.98;100.00
23616;BME280;11985;49.404;7.734;2024-01-06T08:03:46;96410.84;;;3.04;100.00
23616;BME280;11985;49.404;7.734;2024-01-06T08:08:48;96422.41;;;3.01;100.00
23616;BME280;11985;49.404;7.734;2024-01-06T08:13:51;96413.97;;;2.99;100.00
23616;BME280;11985;49.404;7.734;2024-01-06T08:18:56;96419.44;;;3.04;100.00
23616;BME280;11985;49.404;7.734;2024-01-06T08:23:57;96425.75;;;2.95;100.00
23616;BME280;11985;49.404;7.734;2024-01-06T08:29:00;96433.97;;;2.99;100.00
23616;BME280;11985;49.404;7.734;2024-01-06T08:34:02;96440.63;;;3.01;100.00
23616;BME280;11985;49.404;7.734;2024-01-06T08:39:06;96439.69;;;2.94;100.00
23616;BME280;11985;49.404;7.734;2024-01-06T08:44:10;96450.66;;;3.04;100.00
23616;BME280;11985;49.404;7.734;2024-01-06T08:49:12;96452.72;;;3.09;100.00
23616;BME280;11985;49.404;7.734;2024-01-06T08:54:13;96446.38;;;3.11;100.00
23616;BME280;11985;49.404;7.734;2024-01-06T08:59:16;96456.63;;;3.28;100.00
23616;BME280;11985;49.404;7.734;2024-01-06T09:04:18;96460.72;;;3.37;100.00
23616;BME280;11985;49.404;7.734;2024-01-06T09:09:19;96464.50;;;3.34;100.00
23616;BME280;11985;49.404;7.734;2024-01-06T09:14:22;96470.25;;;3.30;100.00
23616;BME280;11985;49.404;7.734;2024-01-06T09:19:24;96473.31;;;3.33;100.00
23616;BME280;11985;49.404;7.734;2024-01-06T09:24:28;96479.13;;;3.35;100.00
23616;BME280;11985;49.404;7.734;2024-01-06T09:29:31;96481.91;;;3.49;100.00
23616;BME280;11985;49.404;7.734;2024-01-06T09:34:32;96483.34;;;3.51;100.00
23616;BME280;11985;49.404;7.734;2024-01-06T09:39:34;96486.84;;;3.58;100.00
23616;BME280;11985;49.404;7.734;2024-01-06T09:44:37;96497.88;;;3.60;100.00
23616;BME280;11985;49.404;7.734;2024-01-06T09:49:39;96497.06;;;3.60;100.00
23616;BME280;11985;49.404;7.734;2024-01-06T09:54:41;96508.94;;;3.62;100.00
23616;BME280;11985;49.404;7.734;2024-01-06T09:59:49;96508.38;;;3.82;100.00
23616;BME280;11985;49.404;7.734;2024-01-06T10:04:50;96509.38;;;3.81;100.00
23616;BME280;11985;49.404;7.734;2024-01-06T10:09:54;96505.41;;;3.85;100.00
23616;BME280;11985;49.404;7.734;2024-01-06T10:14:57;96511.69;;;3.76;100.00
23616;BME280;11985;49.404;7.734;2024-01-06T10:19:59;96504.06;;;3.74;100.00
23616;BME280;11985;49.404;7.734;2024-01-06T10:25:01;96500.84;;;3.72;100.00
23616;BME280;11985;49.404;7.734;2024-01-06T10:30:05;96509.28;;;3.74;100.00
23616;BME280;11985;49.404;7.734;2024-01-06T10:35:07;96505.03;;;3.88;100.00
23616;BME280;11985;49.404;7.734;2024-01-06T10:40:11;96508.56;;;3.95;100.00
23616;BME280;11985;49.404;7.734;2024-01-06T10:45:14;96515.56;;;3.94;100.00
23616;BME280;11985;49.404;7.734;2024-01-06T10:50:17;96508.63;;;3.87;100.00
23616;BME280;11985;49.404;7.734;2024-01-06T10:55:19;96504.31;;;3.94;100.00
23616;BME280;11985;49.404;7.734;2024-01-06T11:00:23;96504.47;;;4.07;100.00
23616;BME280;11985;49.404;7.734;2024-01-06T11:05:26;96507.88;;;4.08;100.00
23616;BME280;11985;49.404;7.734;2024-01-06T11:10:29;96505.13;;;3.94;100.00
23616;BME280;11985;49.404;7.734;2024-01-06T11:15:41;96500.41;;;4.05;100.00
23616;BME280;11985;49.404;7.734;2024-01-06T11:21:16;96491.31;;;4.15;100.00
23616;BME280;11985;49.404;7.734;2024-01-06T11:26:19;96489.69;;;4.29;100.00
23616;BME280;11985;49.404;7.734;2024-01-06T11:31:22;96488.69;;;4.52;100.00
23616;BME280;11985;49.404;7.734;2024-01-06T11:36:25;96486.03;;;4.45;100.00
23616;BME280;11985;49.404;7.734;2024-01-06T11:41:48;96477.97;;;4.61;100.00
23616;BME280;11985;49.404;7.734;2024-01-06T11:46:51;96483.13;;;4.83;100.00
23616;BME280;11985;49.404;7.734;2024-01-06T11:51:56;96477.03;;;4.97;100.00
23616;BME280;11985;49.404;7.734;2024-01-06T11:56:58;96483.22;;;4.68;100.00
23616;BME280;11985;49.404;7.734;2024-01-06T12:02:01;96482.19;;;4.62;100.00
23616;BME280;11985;49.404;7.734;2024-01-06T12:07:05;96481.41;;;4.68;100.00
23616;BME280;11985;49.404;7.734;2024-01-06T12:12:08;96475.72;;;4.58;100.00
23616;BME280;11985;49.404;7.734;2024-01-06T12:17:12;96482.19;;;4.62;100.00
23616;BME280;11985;49.404;7.734;2024-01-06T12:22:15;96470.44;;;4.52;100.00
23616;BME280;11985;49.404;7.734;2024-01-06T12:27:17;96463.66;;;4.57;100.00
23616;BME280;11985;49.404;7.734;2024-01-06T12:32:23;96458.94;;;4.67;100.00
23616;BME280;11985;49.404;7.734;2024-01-06T12:37:25;96463.22;;;4.75;100.00
23616;BME280;11985;49.404;7.734;2024-01-06T12:42:27;96457.94;;;4.68;100.00
23616;BME280;11985;49.404;7.734;2024-01-06T12:47:30;96463.41;;;4.73;100.00
23616;BME280;11985;49.404;7.734;2024-01-06T12:52:31;96461.34;;;4.69;100.00
23616;BME280;11985;49.404;7.734;2024-01-06T12:57:34;96466.09;;;4.87;100.00
23616;BME280;11985;49.404;7.734;2024-01-06T13:02:37;96476.34;;;4.88;100.00
23616;BME280;11985;49.404;7.734;2024-01-06T13:07:38;96476.69;;;4.79;100.00
23616;BME280;11985;49.404;7.734;2024-01-06T13:12:40;96475.91;;;4.78;100.00
23616;BME280;11985;49.404;7.734;2024-01-06T13:17:43;96475.38;;;4.89;100.00
23616;BME280;11985;49.404;7.734;2024-01-06T13:22:45;96478.84;;;4.96;100.00
23616;BME280;11985;49.404;7.734;2024-01-06T13:27:46;96474.47;;;5.03;100.00
23616;BME280;11985;49.404;7.734;2024-01-06T13:32:49;96484.91;;;5.03;100.00
23616;BME280;11985;49.404;7.734;2024-01-06T13:37:51;96490.50;;;5.00;100.00
23616;BME280;11985;49.404;7.734;2024-01-06T13:42:53;96491.31;;;5.01;100.00
23616;BME280;11985;49.404;7.734;2024-01-06T13:47:56;96494.56;;;5.10;100.00
23616;BME280;11985;49.404;7.734;2024-01-06T13:52:58;96501.72;;;5.22;100.00
23616;BME280;11985;49.404;7.734;2024-01-06T13:58:00;96493.13;;;5.28;100.00
23616;BME280;11985;49.404;7.734;2024-01-06T14:03:04;96501.88;;;5.21;100.00
23616;BME280;11985;49.404;7.734;2024-01-06T14:08:07;96506.94;;;5.22;100.00
23616;BME280;11985;49.404;7.734;2024-01-06T14:13:08;96514.84;;;5.36;100.00
23616;BME280;11985;49.404;7.734;2024-01-06T14:18:12;96519.84;;;5.30;100.00
23616;BME280;11985;49.404;7.734;2024-01-06T14:23:15;96521.41;;;5.25;100.00
23616;BME280;11985;49.404;7.734;2024-01-06T14:28:16;96517.47;;;5.36;100.00
23616;BME280;11985;49.404;7.734;2024-01-06T14:33:19;96530.09;;;5.32;100.00
23616;BME280;11985;49.404;7.734;2024-01-06T14:38:21;96532.56;;;5.12;100.00
23616;BME280;11985;49.404;7.734;2024-01-06T14:43:22;96537.91;;;5.04;100.00
23616;BME280;11985;49.404;7.734;2024-01-06T14:48:25;96530.28;;;5.02;100.00
23616;BME280;11985;49.404;7.734;2024-01-06T14:53:28;96537.09;;;5.03;100.00
23616;BME280;11985;49.404;7.734;2024-01-06T14:58:29;96532.44;;;4.99;100.00
23616;BME280;11985;49.404;7.734;2024-01-06T15:03:32;96533.69;;;4.82;100.00
23616;BME280;11985;49.404;7.734;2024-01-06T15:08:34;96533.34;;;4.85;100.00
23616;BME280;11985;49.404;7.734;2024-01-06T15:13:36;96534.69;;;5.02;100.00
23616;BME280;11985;49.404;7.734;2024-01-06T15:18:39;96540.41;;;5.12;100.00
23616;BME280;11985;49.404;7.734;2024-01-06T15:23:40;96546.91;;;5.23;100.00
23616;BME280;11985;49.404;7.734;2024-01-06T15:28:42;96557.75;;;5.26;100.00
23616;BME280;11985;49.404;7.734;2024-01-06T15:33:45;96563.41;;;5.30;100.00
23616;BME280;11985;49.404;7.734;2024-01-06T15:38:47;96564.63;;;5.27;100.00
23616;BME280;11985;49.404;7.734;2024-01-06T15:43:49;96563.19;;;5.25;100.00
23616;BME280;11985;49.404;7.734;2024-01-06T15:48:52;96575.78;;;5.21;100.00
23616;BME280;11985;49.404;7.734;2024-01-06T15:53:54;96572.94;;;5.16;100.00
23616;BME280;11985;49.404;7.734;2024-01-06T15:58:55;96575.34;;;5.11;100.00
23616;BME280;11985;49.404;7.734;2024-01-06T16:03:59;96575.69;;;5.08;100.00
23616;BME280;11985;49.404;7.734;2024-01-06T16:09:01;96571.22;;;5.02;100.00
23616;BME280;11985;49.404;7.734;2024-01-06T16:14:02;96576.06;;;5.05;100.00
23616;BME280;11985;49.404;7.734;2024-01-06T16:19:05;96579.00;;;5.17;100.00
23616;BME280;11985;49.404;7.734;2024-01-06T16:24:07;96582.66;;;5.22;100.00
23616;BME280;11985;49.404;7.734;2024-01-06T16:29:11;96594.25;;;5.20;100.00
23616;BME280;11985;49.404;7.734;2024-01-06T16:34:15;96603.66;;;4.93;100.00
23616;BME280;11985;49.404;7.734;2024-01-06T16:39:16;96608.25;;;4.69;100.00
23616;BME280;11985;49.404;7.734;2024-01-06T16:44:18;96617.16;;;4.60;100.00
23616;BME280;11985;49.404;7.734;2024-01-06T16:49:21;96619.94;;;4.59;100.00
23616;BME280;11985;49.404;7.734;2024-01-06T16:54:23;96627.72;;;4.37;100.00
23616;BME280;11985;49.404;7.734;2024-01-06T16:59:24;96631.44;;;4.28;100.00
23616;BME280;11985;49.404;7.734;2024-01-06T17:04:29;96632.59;;;4.26;100.00
23616;BME280;11985;49.404;7.734;2024-01-06T17:09:31;96641.06;;;4.13;100.00
23616;BME280;11985;49.404;7.734;2024-01-06T17:14:32;96648.00;;;4.06;100.00
23616;BME280;11985;49.404;7.734;2024-01-06T17:19:35;96646.25;;;3.98;100.00
23616;BME280;11985;49.404;7.734;2024-01-06T17:24:37;96648.97;;;3.90;100.00
23616;BME280;11985;49.404;7.734;2024-01-06T17:29:38;96655.50;;;3.86;100.00
23616;BME280;11985;49.404;7.734;2024-01-06T17:34:41;96662.34;;;3.72;100.00
23616;BME280;11985;49.404;7.734;2024-01-06T17:39:43;96666.88;;;3.70;100.00
23616;BME280;11985;49.404;7.734;2024-01-06T17:44:44;96667.97;;;3.76;100.00
23616;BME280;11985;49.404;7.734;2024-01-06T17:49:47;96670.41;;;3.77;100.00
23616;BME280;11985;49.404;7.734;2024-01-06T17:54:49;96669.50;;;3.70;100.00
23616;BME280;11985;49.404;7.734;2024-01-06T17:59:50;96679.81;;;3.63;100.00
23616;BME280;11985;49.404;7.734;2024-01-06T18:04:58;96685.31;;;3.68;100.00
23616;BME280;11985;49.404;7.734;2024-01-06T18:10:00;96696.00;;;3.74;100.00
23616;BME280;11985;49.404;7.734;2024-01-06T18:15:02;96697.97;;;3.71;100.00
23616;BME280;11985;49.404;7.734;2024-01-06T18:20:07;96698.78;;;3.49;100.00
23616;BME280;11985;49.404;7.734;2024-01-06T18:25:09;96699.91;;;3.32;100.00
23616;BME280;11985;49.404;7.734;2024-01-06T18:30:12;96709.28;;;3.18;100.00
23616;BME280;11985;49.404;7.734;2024-01-06T18:35:15;96702.97;;;3.12;100.00
23616;BME280;11985;49.404;7.734;2024-01-06T18:40:17;96712.06;;;3.16;100.00
23616;BME280;11985;49.404;7.734;2024-01-06T18:45:24;96710.97;;;3.34;100.00
23616;BME280;11985;49.404;7.734;2024-01-06T18:50:28;96710.72;;;3.43;100.00
23616;BME280;11985;49.404;7.734;2024-01-06T18:55:29;96717.31;;;3.54;100.00
23616;BME280;11985;49.404;7.734;2024-01-06T19:00:31;96709.78;;;3.59;100.00
23616;BME280;11985;49.404;7.734;2024-01-06T19:05:41;96711.81;;;3.49;100.00
23616;BME280;11985;49.404;7.734;2024-01-06T19:10:43;96713.28;;;3.29;100.00
23616;BME280;11985;49.404;7.734;2024-01-06T19:15:45;96719.88;;;3.16;100.00
23616;BME280;11985;49.404;7.734;2024-01-06T19:20:48;96729.34;;;3.09;100.00
23616;BME280;11985;49.404;7.734;2024-01-06T19:25:50;96736.50;;;3.07;100.00
23616;BME280;11985;49.404;7.734;2024-01-06T19:30:52;96738.19;;;3.00;100.00
23616;BME280;11985;49.404;7.734;2024-01-06T19:35:56;96742.09;;;2.96;100.00
23616;BME280;11985;49.404;7.734;2024-01-06T19:40:58;96750.63;;;3.13;100.00
23616;BME280;11985;49.404;7.734;2024-01-06T19:46:01;96743.91;;;3.18;100.00
23616;BME280;11985;49.404;7.734;2024-01-06T19:51:04;96752.34;;;3.21;100.00
23616;BME280;11985;49.404;7.734;2024-01-06T19:56:12;96749.13;;;3.18;100.00
23616;BME280;11985;49.404;7.734;2024-01-06T20:01:14;96749.25;;;3.25;100.00
23616;BME280;11985;49.404;7.734;2024-01-06T20:06:17;96753.88;;;3.38;100.00
23616;BME280;11985;49.404;7.734;2024-01-06T20:11:19;96757.56;;;3.43;100.00
23616;BME280;11985;49.404;7.734;2024-01-06T20:16:20;96754.41;;;3.33;100.00
23616;BME280;11985;49.404;7.734;2024-01-06T20:21:23;96753.97;;;3.22;100.00
23616;BME280;11985;49.404;7.734;2024-01-06T20:26:25;96748.44;;;3.25;100.00
23616;BME280;11985;49.404;7.734;2024-01-06T20:31:29;96747.00;;;3.22;100.00
23616;BME280;11985;49.404;7.734;2024-01-06T20:36:32;96749.81;;;3.12;100.00
23616;BME280;11985;49.404;7.734;2024-01-06T20:41:33;96752.44;;;3.04;100.00
23616;BME280;11985;49.404;7.734;2024-01-06T20:46:35;96751.31;;;3.07;100.00
23616;BME280;11985;49.404;7.734;2024-01-06T20:51:39;96755.72;;;3.06;100.00
23616;BME280;11985;49.404;7.734;2024-01-06T20:56:40;96750.44;;;3.14;100.00
23616;BME280;11985;49.404;7.734;2024-01-06T21:01:42;96741.63;;;3.24;100.00
23616;BME280;11985;49.404;7.734;2024-01-06T21:06:45;96742.75;;;3.21;100.00
23616;BME280;11985;49.404;7.734;2024-01-06T21:11:46;96745.22;;;3.23;100.00
23616;BME280;11985;49.404;7.734;2024-01-06T21:16:48;96749.25;;;3.25;100.00
23616;BME280;11985;49.404;7.734;2024-01-06T21:21:52;96749.47;;;3.15;100.00
23616;BME280;11985;49.404;7.734;2024-01-06T21:26:53;96755.72;;;3.06;100.00
23616;BME280;11985;49.404;7.734;2024-01-06T21:31:55;96753.50;;;2.95;100.00
23616;BME280;11985;49.404;7.734;2024-01-06T21:36:59;96752.06;;;2.84;100.00
23616;BME280;11985;49.404;7.734;2024-01-06T21:42:00;96756.78;;;2.81;100.00
23616;BME280;11985;49.404;7.734;2024-01-06T21:47:02;96750.84;;;2.64;100.00
23616;BME280;11985;49.404;7.734;2024-01-06T21:52:05;96750.53;;;2.67;100.00
23616;BME280;11985;49.404;7.734;2024-01-06T21:57:08;96752.59;;;2.72;100.00
23616;BME280;11985;49.404;7.734;2024-01-06T22:02:11;96765.09;;;2.84;100.00
23616;BME280;11985;49.404;7.734;2024-01-06T22:07:14;96765.47;;;3.04;100.00
23616;BME280;11985;49.404;7.734;2024-01-06T22:12:15;96764.34;;;2.99;100.00
23616;BME280;11985;49.404;7.734;2024-01-06T22:17:17;96767.13;;;2.97;100.00
23616;BME280;11985;49.404;7.734;2024-01-06T22:22:20;96777.19;;;3.00;100.00
23616;BME280;11985;49.404;7.734;2024-01-06T22:27:23;96784.34;;;2.98;100.00
23616;BME280;11985;49.404;7.734;2024-01-06T22:32:25;96787.00;;;2.90;100.00
23616;BME280;11985;49.404;7.734;2024-01-06T22:37:29;96784.28;;;2.75;100.00
23616;BME280;11985;49.404;7.734;2024-01-06T22:42:30;96788.41;;;2.61;100.00
23616;BME280;11985;49.404;7.734;2024-01-06T22:47:32;96790.53;;;2.58;100.00
23616;BME280;11985;49.404;7.734;2024-01-06T22:52:35;96795.41;;;2.53;100.00
23616;BME280;11985;49.404;7.734;2024-01-06T22:57:37;96793.66;;;2.45;100.00
23616;BME280;11985;49.404;7.734;2024-01-06T23:02:39;96794.13;;;2.41;100.00
23616;BME280;11985;49.404;7.734;2024-01-06T23:07:44;96788.44;;;2.37;100.00
23616;BME280;11985;49.404;7.734;2024-01-06T23:12:45;96791.84;;;2.37;100.00
23616;BME280;11985;49.404;7.734;2024-01-06T23:17:48;96791.88;;;2.21;100.00
23616;BME280;11985;49.404;7.734;2024-01-06T23:22:51;96801.00;;;2.17;100.00
23616;BME280;11985;49.404;7.734;2024-01-06T23:27:53;96807.66;;;2.11;100.00
23616;BME280;11985;49.404;7.734;2024-01-06T23:32:54;96803.09;;;2.05;100.00
23616;BME280;11985;49.404;7.734;2024-01-06T23:37:57;96806.03;;;2.10;100.00
23616;BME280;11985;49.404;7.734;2024-01-06T23:42:59;96815.59;;;2.10;100.00
23616;BME280;11985;49.404;7.734;2024-01-06T23:48:01;96811.88;;;1.96;100.00
23616;BME280;11985;49.404;7.734;2024-01-06T23:53:04;96815.78;;;2.00;100.00
23616;BME280;11985;49.404;7.734;2024-01-06T23:58:05;96813.69;;;1.96;100.00
